Time;durP1;ratioP1;P1;durP2;ratioP2;P2;SDS_P1;SDS_P2;PMS_P1;PMS_P2;Temp;Humidity;BMP_temperature;BMP_pressure;BME280_temperature;BME280_humidity;BME280_pressure;Samples;Min_cycle;Max_cycle;Signal;HPM_P1;HPM_P2
2023/05/05 00:00:59;;;;;;;14.07;5.03;;;11.10;99.90;;;;;;4993300;28;20034;-72
2023/05/05 00:03:26;;;;;;;15.38;5.13;;;11.10;99.90;;;;;;4975940;28;20035;-72
2023/05/05 00:05:56;;;;;;;15.82;6.00;;;11.10;99.90;;;;;;4993430;28;20026;-71
2023/05/05 00:08:22;;;;;;;17.92;5.57;;;11.10;99.90;;;;;;4993309;28;21122;-71
2023/05/05 00:10:49;;;;;;;13.15;4.90;;;11.10;99.90;;;;;;4992634;28;20081;-70
2023/05/05 00:13:15;;;;;;;13.50;4.82;;;11.10;99.90;;;;;;4992616;28;20065;-72
2023/05/05 00:15:42;;;;;;;11.10;4.97;;;11.10;99.90;;;;;;4993191;28;20061;-72
2023/05/05 00:18:08;;;;;;;16.20;5.30;;;11.10;99.90;;;;;;4993125;28;20041;-72
2023/05/05 00:20:33;;;;;;;14.57;5.25;;;11.00;99.90;;;;;;4992893;28;20026;-71
2023/05/05 00:22:59;;;;;;;17.50;5.28;;;11.00;99.90;;;;;;4976298;28;20040;-72
2023/05/05 00:25:25;;;;;;;11.48;5.28;;;11.00;99.90;;;;;;4992441;28;20033;-70
2023/05/05 00:27:51;;;;;;;15.43;4.97;;;11.00;99.90;;;;;;4992338;28;20117;-71
2023/05/05 00:30:17;;;;;;;13.23;4.90;;;11.00;99.90;;;;;;4992975;28;20125;-71
2023/05/05 00:32:43;;;;;;;12.40;4.95;;;10.90;99.90;;;;;;4992460;28;20175;-70
2023/05/05 00:35:09;;;;;;;12.77;5.22;;;10.90;99.90;;;;;;4992748;28;20048;-71
2023/05/05 00:37:34;;;;;;;17.50;5.32;;;10.90;99.90;;;;;;4993423;28;20025;-70
2023/05/05 00:40:00;;;;;;;15.48;5.60;;;10.80;99.90;;;;;;4970438;28;20034;-71
2023/05/05 00:42:26;;;;;;;13.55;5.00;;;10.80;99.90;;;;;;4972821;28;20039;-72
2023/05/05 00:44:51;;;;;;;14.43;5.00;;;10.80;99.90;;;;;;4971001;28;20018;-71
2023/05/05 00:47:18;;;;;;;16.60;5.60;;;10.80;99.90;;;;;;4974047;28;20033;-72
2023/05/05 00:49:44;;;;;;;12.20;5.13;;;10.80;99.90;;;;;;4971759;28;20031;-70
2023/05/05 00:52:10;;;;;;;16.60;5.53;;;10.80;99.90;;;;;;4969767;28;20146;-71
2023/05/05 00:54:36;;;;;;;13.48;5.60;;;10.70;99.90;;;;;;4990235;28;20047;-73
2023/05/05 00:57:03;;;;;;;11.43;4.78;;;10.70;99.90;;;;;;4990082;28;20034;-71
2023/05/05 00:59:29;;;;;;;16.50;5.70;;;10.70;99.90;;;;;;4972885;28;20074;-71
2023/05/05 01:01:55;;;;;;;14.95;5.35;;;10.70;99.90;;;;;;4971703;28;20034;-70
2023/05/05 01:04:21;;;;;;;14.15;5.00;;;10.60;99.90;;;;;;4987497;28;20031;-71
2023/05/05 01:07:21;;;;;;;15.98;4.82;;;10.60;99.90;;;;;;4988897;28;20472;-70
2023/05/05 01:09:51;;;;;;;12.90;5.45;;;10.60;99.90;;;;;;4990050;28;20031;-70
2023/05/05 01:12:44;;;;;;;14.60;5.28;;;10.50;99.90;;;;;;4988472;28;20043;-71
2023/05/05 01:15:58;;;;;;;12.82;4.97;;;10.50;99.90;;;;;;4990201;28;20018;-72
2023/05/05 01:18:32;;;;;;;11.02;5.10;;;10.50;99.90;;;;;;4883923;29;20070;-71
2023/05/05 01:21:05;;;;;;;11.73;4.80;;;10.50;99.90;;;;;;4882794;29;20049;-70
2023/05/05 01:24:09;;;;;;;15.70;5.20;;;10.40;99.90;;;;;;4943979;28;20065;-71
2023/05/05 01:27:06;;;;;;;11.43;4.83;;;10.40;99.90;;;;;;4987951;28;20030;-71
2023/05/05 01:30:13;;;;;;;12.55;5.00;;;10.40;99.90;;;;;;4988033;28;20530;-71
2023/05/05 01:32:46;;;;;;;12.73;4.90;;;10.30;99.90;;;;;;4972584;28;20057;-71
2023/05/05 01:35:17;;;;;;;15.38;4.93;;;10.30;99.90;;;;;;4971271;28;20026;-70
2023/05/05 01:37:51;;;;;;;19.38;4.95;;;10.30;99.90;;;;;;4989603;28;20034;-71
2023/05/05 01:40:21;;;;;;;15.77;5.00;;;10.30;99.90;;;;;;4988296;28;20033;-71
2023/05/05 01:42:49;;;;;;;10.25;4.72;;;10.30;99.90;;;;;;4988929;28;20034;-72
2023/05/05 01:45:19;;;;;;;14.80;4.65;;;10.20;99.90;;;;;;4989183;28;20023;-70
2023/05/05 01:47:45;;;;;;;9.30;4.53;;;10.20;99.90;;;;;;4970636;28;20023;-71
2023/05/05 01:50:12;;;;;;;15.95;5.22;;;10.20;99.90;;;;;;4986677;28;20100;-71
2023/05/05 01:52:40;;;;;;;13.85;4.53;;;10.20;99.90;;;;;;4989651;28;20057;-72
2023/05/05 01:55:07;;;;;;;11.90;5.07;;;10.20;99.90;;;;;;4970241;28;20022;-71
2023/05/05 01:57:34;;;;;;;10.82;4.07;;;10.10;99.90;;;;;;4988028;28;20050;-71
2023/05/05 02:00:04;;;;;;;13.70;4.65;;;10.10;99.90;;;;;;4988069;28;20062;-72
2023/05/05 02:02:33;;;;;;;11.90;4.70;;;10.10;99.90;;;;;;4987120;28;20085;-72
2023/05/05 02:05:00;;;;;;;13.52;5.43;;;10.10;99.90;;;;;;4986772;28;20019;-71
2023/05/05 02:07:26;;;;;;;9.55;4.60;;;10.10;99.90;;;;;;4972887;28;20857;-71
2023/05/05 02:09:53;;;;;;;14.82;4.78;;;10.00;99.90;;;;;;4988942;28;20094;-71
2023/05/05 02:12:20;;;;;;;15.48;5.57;;;10.10;99.90;;;;;;4990425;28;20085;-70
2023/05/05 02:14:46;;;;;;;12.23;5.07;;;10.00;99.90;;;;;;4992413;28;20096;-70
2023/05/05 02:17:14;;;;;;;13.60;5.18;;;10.00;99.90;;;;;;4973152;28;20029;-69
2023/05/05 02:19:44;;;;;;;17.45;5.20;;;10.00;99.90;;;;;;4973643;28;20057;-71
2023/05/05 02:22:11;;;;;;;11.20;4.57;;;10.00;99.90;;;;;;4992265;28;20045;-71
2023/05/05 02:24:37;;;;;;;15.25;4.88;;;10.00;99.90;;;;;;4991202;28;20023;-71
2023/05/05 02:27:05;;;;;;;14.55;4.40;;;9.90;99.90;;;;;;4993544;28;20030;-69
2023/05/05 02:29:40;;;;;;;15.90;5.32;;;9.90;99.90;;;;;;4990787;28;20058;-71
2023/05/05 02:32:12;;;;;;;11.88;4.32;;;9.80;99.90;;;;;;4993559;28;20026;-70
2023/05/05 02:34:39;;;;;;;12.45;4.70;;;9.80;99.90;;;;;;4992659;28;20022;-70
2023/05/05 02:37:11;;;;;;;16.40;4.90;;;9.80;99.90;;;;;;4991823;28;20022;-72
2023/05/05 02:40:04;;;;;;;17.00;5.22;;;9.80;99.90;;;;;;4992138;28;20030;-73
2023/05/05 02:42:42;;;;;;;11.43;5.15;;;9.80;99.90;;;;;;4991212;28;20681;-72
2023/05/05 02:45:15;;;;;;;14.50;4.70;;;9.80;99.90;;;;;;4991638;28;20102;-71
2023/05/05 02:47:40;;;;;;;8.68;4.85;;;9.70;99.90;;;;;;4973499;28;20045;-71
2023/05/05 02:50:08;;;;;;;14.90;5.00;;;9.70;99.90;;;;;;4991367;28;20027;-73
2023/05/05 02:52:34;;;;;;;15.57;5.35;;;9.60;99.90;;;;;;4990168;28;20073;-72
2023/05/05 02:55:01;;;;;;;13.27;5.05;;;9.60;99.90;;;;;;4989459;28;20027;-71
2023/05/05 02:57:33;;;;;;;9.93;4.93;;;9.60;99.90;;;;;;4991888;28;20023;-71
2023/05/05 03:00:17;;;;;;;11.15;4.60;;;9.60;99.90;;;;;;4990813;28;20033;-72
2023/05/05 03:02:54;;;;;;;13.48;4.82;;;9.50;99.90;;;;;;4972751;28;20486;-72
2023/05/05 03:05:22;;;;;;;19.35;5.05;;;9.50;99.90;;;;;;4989248;28;20042;-72
2023/05/05 03:07:54;;;;;;;13.80;4.70;;;9.50;99.90;;;;;;4990830;28;20046;-71
2023/05/05 03:10:23;;;;;;;14.02;5.18;;;9.40;99.90;;;;;;4973410;28;20033;-71
2023/05/05 03:12:55;;;;;;;11.40;4.88;;;9.40;99.90;;;;;;4989850;28;20054;-70
2023/05/05 03:15:26;;;;;;;16.35;5.57;;;9.40;99.90;;;;;;4989791;28;20061;-70
2023/05/05 03:17:55;;;;;;;13.93;4.78;;;9.40;99.90;;;;;;4991081;28;20026;-70
2023/05/05 03:20:21;;;;;;;13.93;4.72;;;9.40;99.90;;;;;;4973259;28;20044;-72
2023/05/05 03:22:47;;;;;;;10.63;4.88;;;9.40;99.90;;;;;;4972853;28;20062;-71
2023/05/05 03:25:12;;;;;;;12.85;5.28;;;9.40;99.90;;;;;;4989883;28;20053;-71
2023/05/05 03:27:40;;;;;;;14.82;5.30;;;9.30;99.90;;;;;;4972123;28;20035;-70
2023/05/05 03:30:06;;;;;;;12.18;5.45;;;9.30;99.90;;;;;;4991481;28;20019;-71
2023/05/05 03:32:31;;;;;;;18.83;5.35;;;9.30;99.90;;;;;;4990653;28;20023;-70
2023/05/05 03:34:57;;;;;;;9.57;4.72;;;9.20;99.90;;;;;;4991292;28;20022;-71
2023/05/05 03:37:23;;;;;;;16.77;5.40;;;9.20;99.90;;;;;;4971678;28;20874;-72
2023/05/05 03:39:48;;;;;;;18.60;5.50;;;9.20;99.90;;;;;;4992103;28;20026;-70
2023/05/05 03:42:14;;;;;;;14.35;5.20;;;9.20;99.90;;;;;;4990486;28;20050;-71
2023/05/05 03:44:39;;;;;;;9.73;4.40;;;9.20;99.90;;;;;;4973005;28;20031;-70
2023/05/05 03:47:05;;;;;;;14.63;5.28;;;9.20;99.90;;;;;;4990527;28;20026;-70
2023/05/05 03:49:31;;;;;;;12.23;4.80;;;9.20;99.90;;;;;;4988459;28;20031;-71
2023/05/05 03:51:56;;;;;;;15.90;5.05;;;9.10;99.90;;;;;;4992416;28;20022;-70
2023/05/05 03:54:22;;;;;;;9.90;4.82;;;9.10;99.90;;;;;;4988453;28;20673;-70
2023/05/05 03:56:48;;;;;;;15.65;5.10;;;9.10;99.90;;;;;;4989671;28;20034;-71
2023/05/05 03:59:13;;;;;;;17.27;5.13;;;9.10;99.90;;;;;;4989811;28;20061;-70
2023/05/05 04:01:39;;;;;;;11.77;4.82;;;9.10;99.90;;;;;;4988711;28;20511;-69
2023/05/05 04:04:04;;;;;;;12.55;5.00;;;9.10;99.90;;;;;;4974759;28;20050;-71
2023/05/05 04:06:30;;;;;;;10.68;4.50;;;9.10;99.90;;;;;;4989590;28;20119;-72
2023/05/05 04:08:56;;;;;;;13.90;4.85;;;9.10;99.90;;;;;;4972567;28;20027;-70
2023/05/05 04:11:22;;;;;;;11.30;4.85;;;9.00;99.90;;;;;;4990543;28;20073;-70
2023/05/05 04:13:48;;;;;;;14.30;4.88;;;9.00;99.90;;;;;;4989027;28;20031;-71
2023/05/05 04:16:14;;;;;;;17.60;5.40;;;9.00;99.90;;;;;;4987959;28;20057;-70
2023/05/05 04:18:40;;;;;;;18.38;5.05;;;9.00;99.90;;;;;;4988327;28;20046;-71
2023/05/05 04:21:06;;;;;;;14.30;5.20;;;9.00;99.90;;;;;;4992006;28;20042;-70
2023/05/05 04:23:32;;;;;;;13.73;5.53;;;9.00;99.90;;;;;;4972069;28;20483;-72
2023/05/05 04:25:57;;;;;;;14.30;4.90;;;9.00;99.90;;;;;;4974020;28;20030;-71
2023/05/05 04:28:23;;;;;;;14.70;4.88;;;9.10;99.90;;;;;;4990082;28;20098;-71
2023/05/05 04:30:48;;;;;;;18.40;4.95;;;9.10;99.90;;;;;;4992733;28;20023;-71
2023/05/05 04:33:14;;;;;;;11.23;4.68;;;9.10;99.90;;;;;;4993161;28;20026;-70
2023/05/05 04:35:39;;;;;;;12.63;5.45;;;9.10;99.90;;;;;;4992672;28;20041;-73
2023/05/05 04:38:05;;;;;;;11.35;5.22;;;9.10;99.90;;;;;;4991980;28;20031;-70
2023/05/05 04:40:31;;;;;;;18.38;5.13;;;9.10;99.90;;;;;;4975625;28;20066;-71
2023/05/05 04:42:56;;;;;;;14.93;4.82;;;9.20;99.90;;;;;;4990149;28;20042;-71
2023/05/05 04:45:22;;;;;;;14.75;5.20;;;9.20;99.90;;;;;;4992694;28;20099;-68
2023/05/05 04:47:48;;;;;;;10.75;4.43;;;9.20;99.90;;;;;;4975199;28;20019;-69
2023/05/05 04:50:13;;;;;;;13.45;4.90;;;9.20;99.90;;;;;;4992441;28;20023;-69
2023/05/05 04:52:40;;;;;;;12.63;4.90;;;9.30;99.90;;;;;;4974818;28;20027;-71
2023/05/05 04:55:07;;;;;;;19.13;5.28;;;9.30;99.90;;;;;;4992646;28;20022;-70
2023/05/05 04:57:33;;;;;;;13.23;4.72;;;9.30;99.90;;;;;;4992009;28;20027;-69
2023/05/05 04:59:59;;;;;;;13.32;4.70;;;9.30;99.90;;;;;;4992829;28;20104;-69
2023/05/05 05:02:25;;;;;;;13.05;4.72;;;9.40;99.90;;;;;;4991698;28;20039;-70
2023/05/05 05:04:51;;;;;;;15.85;4.90;;;9.40;99.90;;;;;;4992289;28;20019;-68
2023/05/05 05:07:17;;;;;;;16.58;5.40;;;9.50;99.90;;;;;;4992761;28;20027;-69
2023/05/05 05:09:42;;;;;;;14.02;5.32;;;9.50;99.90;;;;;;4992470;28;20031;-71
2023/05/05 05:12:08;;;;;;;11.40;4.50;;;9.50;99.90;;;;;;4973493;28;20047;-71
2023/05/05 05:14:38;;;;;;;10.13;4.80;;;9.50;99.90;;;;;;4992813;28;20023;-69
2023/05/05 05:17:05;;;;;;;15.27;4.80;;;9.50;99.90;;;;;;4992446;28;20027;-69
2023/05/05 05:19:30;;;;;;;12.95;4.70;;;9.60;99.90;;;;;;4991196;28;20027;-70
2023/05/05 05:21:56;;;;;;;12.73;4.50;;;9.50;99.90;;;;;;4992533;28;20372;-68
2023/05/05 05:24:23;;;;;;;12.40;4.60;;;9.60;99.90;;;;;;4992367;28;20015;-68
2023/05/05 05:26:48;;;;;;;11.52;4.68;;;9.60;99.90;;;;;;4991280;28;20480;-69
2023/05/05 05:29:14;;;;;;;13.50;4.53;;;9.60;99.90;;;;;;4974863;28;20051;-71
2023/05/05 05:31:39;;;;;;;16.58;4.72;;;9.50;99.90;;;;;;4974965;28;20027;-70
2023/05/05 05:34:05;;;;;;;13.27;4.82;;;9.50;99.90;;;;;;4991689;28;20062;-69
2023/05/05 05:36:31;;;;;;;17.13;5.18;;;9.50;99.90;;;;;;4992166;28;20111;-71
2023/05/05 05:38:56;;;;;;;14.20;5.18;;;9.50;99.90;;;;;;4991436;28;20029;-70
2023/05/05 05:41:22;;;;;;;14.68;5.35;;;9.50;99.90;;;;;;4991764;28;20487;-69
2023/05/05 05:43:47;;;;;;;18.83;5.55;;;9.50;99.90;;;;;;4992013;28;20050;-71
2023/05/05 05:46:13;;;;;;;14.57;5.15;;;9.50;99.90;;;;;;4992139;28;20026;-69
2023/05/05 05:48:38;;;;;;;14.93;5.68;;;9.60;99.90;;;;;;4996066;28;20391;-69
2023/05/05 05:51:04;;;;;;;13.05;4.82;;;9.70;99.90;;;;;;4978229;28;20023;-70
2023/05/05 05:53:30;;;;;;;16.00;5.65;;;9.80;99.90;;;;;;4996363;28;20387;-69
2023/05/05 05:55:55;;;;;;;14.00;5.00;;;9.90;99.90;;;;;;4996223;28;20081;-69
2023/05/05 05:58:21;;;;;;;14.15;4.75;;;10.10;99.90;;;;;;4996286;28;20042;-71
2023/05/05 06:00:47;;;;;;;12.82;4.97;;;10.20;99.90;;;;;;4995417;28;20022;-69
2023/05/05 06:03:13;;;;;;;13.13;4.90;;;10.30;99.90;;;;;;4995004;28;20043;-69
2023/05/05 06:05:39;;;;;;;13.60;5.00;;;10.40;99.90;;;;;;4996152;28;20026;-68
2023/05/05 06:08:04;;;;;;;13.45;4.82;;;10.50;99.90;;;;;;4995921;28;20415;-70
2023/05/05 06:10:31;;;;;;;11.60;4.78;;;10.60;99.90;;;;;;4995448;28;20554;-71
2023/05/05 06:12:56;;;;;;;10.80;4.57;;;10.70;99.90;;;;;;4994956;28;20073;-70
2023/05/05 06:15:22;;;;;;;10.98;4.45;;;10.70;99.90;;;;;;4994540;28;20018;-69
2023/05/05 06:17:47;;;;;;;9.63;4.80;;;10.70;99.90;;;;;;4994702;28;20031;-69
2023/05/05 06:20:13;;;;;;;13.93;5.10;;;10.80;99.90;;;;;;4977104;28;20019;-69
2023/05/05 06:22:39;;;;;;;15.90;5.30;;;10.90;99.90;;;;;;4995165;28;20038;-68
2023/05/05 06:25:05;;;;;;;17.17;4.72;;;11.00;99.90;;;;;;4995583;28;20567;-68
2023/05/05 06:27:31;;;;;;;10.85;4.60;;;11.00;99.90;;;;;;4977083;28;20034;-71
2023/05/05 06:29:56;;;;;;;12.75;4.65;;;11.00;99.90;;;;;;4976872;28;20023;-70
2023/05/05 06:32:22;;;;;;;12.55;5.30;;;11.00;99.90;;;;;;4994470;28;20077;-68
2023/05/05 06:34:47;;;;;;;15.57;5.38;;;11.00;99.90;;;;;;4977666;28;20044;-69
2023/05/05 06:37:13;;;;;;;13.63;5.25;;;11.10;99.90;;;;;;4977029;28;20225;-69
2023/05/05 06:39:39;;;;;;;12.40;4.70;;;11.10;99.90;;;;;;4976895;28;20026;-69
2023/05/05 06:42:04;;;;;;;13.43;5.40;;;11.10;99.90;;;;;;4977074;28;20049;-70
2023/05/05 06:44:32;;;;;;;11.05;4.47;;;11.10;99.90;;;;;;4993736;28;20031;-69
2023/05/05 06:46:57;;;;;;;16.48;5.13;;;11.20;99.90;;;;;;4994037;28;20015;-69
2023/05/05 06:49:23;;;;;;;11.05;4.90;;;11.20;99.90;;;;;;4993358;28;20047;-70
2023/05/05 06:51:48;;;;;;;15.82;5.40;;;11.20;99.90;;;;;;4992529;28;20058;-69
2023/05/05 06:54:14;;;;;;;15.20;5.35;;;11.20;99.90;;;;;;4975341;28;20034;-69
2023/05/05 06:56:39;;;;;;;14.75;5.28;;;11.30;99.90;;;;;;4992906;28;20034;-70
2023/05/05 06:59:05;;;;;;;16.70;5.75;;;11.30;99.90;;;;;;4973525;28;20019;-72
2023/05/05 07:01:30;;;;;;;11.88;5.00;;;11.30;99.90;;;;;;4992745;28;20041;-70
2023/05/05 07:03:56;;;;;;;12.73;5.28;;;11.40;99.90;;;;;;4992404;28;20814;-68
2023/05/05 07:06:22;;;;;;;16.83;5.50;;;11.40;99.90;;;;;;4992649;28;20037;-69
2023/05/05 07:08:47;;;;;;;13.63;4.78;;;11.40;99.90;;;;;;4993302;28;20018;-70
2023/05/05 07:11:13;;;;;;;16.73;5.22;;;11.40;99.90;;;;;;4992311;28;20019;-69
2023/05/05 07:13:38;;;;;;;14.60;5.68;;;11.50;99.90;;;;;;4974765;28;20054;-70
2023/05/05 07:16:05;;;;;;;21.52;5.60;;;11.60;99.90;;;;;;4975040;28;20153;-68
2023/05/05 07:18:30;;;;;;;15.93;5.15;;;11.70;99.90;;;;;;4991898;28;20023;-69
2023/05/05 07:20:56;;;;;;;19.00;6.03;;;11.70;99.90;;;;;;4992816;28;20054;-68
2023/05/05 07:23:21;;;;;;;14.25;5.68;;;11.80;99.90;;;;;;4992737;28;20111;-70
2023/05/05 07:25:47;;;;;;;15.13;5.95;;;11.70;99.90;;;;;;4974520;28;20049;-70
2023/05/05 07:28:13;;;;;;;16.08;5.28;;;11.80;99.90;;;;;;4975264;28;20026;-69
2023/05/05 07:30:38;;;;;;;10.82;5.53;;;11.80;99.90;;;;;;4991712;28;20031;-70
2023/05/05 07:33:04;;;;;;;17.02;5.57;;;11.90;99.90;;;;;;4992250;28;20057;-68
2023/05/05 07:35:29;;;;;;;9.20;5.13;;;11.90;99.90;;;;;;4974929;28;20524;-69
2023/05/05 07:37:55;;;;;;;15.77;5.65;;;11.80;99.90;;;;;;4991969;28;20046;-68
2023/05/05 07:40:20;;;;;;;12.88;5.95;;;11.90;99.90;;;;;;4991911;28;20031;-70
2023/05/05 07:42:46;;;;;;;11.70;5.30;;;11.90;99.90;;;;;;4991389;28;20065;-71
2023/05/05 07:45:12;;;;;;;13.10;5.60;;;11.80;99.90;;;;;;4974563;28;20050;-69
2023/05/05 07:47:39;;;;;;;15.23;5.72;;;11.90;99.90;;;;;;4974566;28;20094;-69
2023/05/05 07:50:05;;;;;;;15.70;5.90;;;11.90;99.90;;;;;;4992182;28;20058;-69
2023/05/05 07:52:35;;;;;;;19.23;6.18;;;11.90;99.90;;;;;;4991659;28;20031;-70
2023/05/05 07:55:00;;;;;;;16.35;6.40;;;11.90;99.90;;;;;;4991429;28;20025;-70
2023/05/05 07:57:26;;;;;;;13.63;6.70;;;12.00;99.90;;;;;;4991598;28;20142;-69
2023/05/05 07:59:51;;;;;;;12.35;6.25;;;12.00;99.90;;;;;;4990663;28;20133;-70
2023/05/05 08:02:17;;;;;;;14.52;6.60;;;11.90;99.90;;;;;;4973379;28;20035;-68
2023/05/05 08:04:42;;;;;;;14.60;6.22;;;12.00;99.90;;;;;;4992033;28;20022;-69
2023/05/05 08:07:09;;;;;;;16.08;6.10;;;11.90;99.90;;;;;;4991142;28;20023;-69
2023/05/05 08:09:36;;;;;;;11.77;6.10;;;11.90;99.90;;;;;;4990770;28;20023;-69
2023/05/05 08:12:02;;;;;;;19.35;6.45;;;11.90;99.90;;;;;;4991325;28;20046;-69
2023/05/05 08:14:31;;;;;;;12.73;6.25;;;11.90;99.90;;;;;;4973524;28;20040;-71
2023/05/05 08:16:57;;;;;;;11.20;6.35;;;11.90;99.90;;;;;;4991130;28;20114;-70
2023/05/05 08:19:23;;;;;;;13.80;6.32;;;12.00;99.90;;;;;;4990974;28;20128;-69
2023/05/05 08:21:49;;;;;;;19.20;5.88;;;12.00;99.90;;;;;;4991282;28;20484;-69
2023/05/05 08:24:15;;;;;;;18.95;6.45;;;12.10;99.90;;;;;;4989935;28;20091;-68
2023/05/05 08:26:40;;;;;;;15.38;5.95;;;12.10;99.90;;;;;;4973836;28;20023;-68
2023/05/05 08:29:06;;;;;;;12.85;6.30;;;12.20;99.90;;;;;;4973035;28;20027;-69
2023/05/05 08:31:35;;;;;;;19.52;6.68;;;12.20;99.90;;;;;;4990595;28;20023;-68
2023/05/05 08:34:05;;;;;;;11.57;5.90;;;12.20;99.90;;;;;;4990923;28;20023;-66
2023/05/05 08:36:32;;;;;;;13.38;6.65;;;12.20;99.90;;;;;;4986843;28;20026;-72
2023/05/05 08:38:58;;;;;;;12.20;6.00;;;12.20;99.90;;;;;;4990679;28;20019;-67
2023/05/05 08:41:25;;;;;;;20.92;6.40;;;12.30;99.90;;;;;;4989916;28;20043;-69
2023/05/05 08:43:50;;;;;;;15.23;6.57;;;12.40;99.90;;;;;;4990352;28;20049;-68
2023/05/05 08:46:16;;;;;;;18.15;6.30;;;12.40;99.90;;;;;;4984277;28;20049;-69
2023/05/05 08:48:43;;;;;;;11.50;5.60;;;12.50;99.90;;;;;;4967210;28;20407;-70
2023/05/05 08:51:15;;;;;;;9.13;5.57;;;12.50;99.90;;;;;;4986381;28;20058;-69
2023/05/05 08:53:53;;;;;;;15.23;6.05;;;12.60;99.90;;;;;;4989076;28;20062;-70
2023/05/05 08:56:20;;;;;;;15.52;5.80;;;12.70;99.90;;;;;;4986281;28;20057;-70
2023/05/05 08:58:48;;;;;;;12.15;5.80;;;12.70;99.90;;;;;;4985347;28;20023;-70
2023/05/05 09:01:14;;;;;;;11.00;5.78;;;12.80;99.90;;;;;;4987993;28;20043;-67
2023/05/05 09:03:40;;;;;;;18.33;6.18;;;13.00;99.90;;;;;;4987165;28;20622;-70
2023/05/05 09:06:06;;;;;;;15.95;5.93;;;13.10;99.90;;;;;;4987588;28;20027;-69
2023/05/05 09:08:33;;;;;;;12.57;6.22;;;13.10;99.90;;;;;;4988003;28;20030;-71
2023/05/05 09:11:01;;;;;;;19.33;6.78;;;13.20;99.90;;;;;;4987060;28;20033;-70
2023/05/05 09:13:26;;;;;;;15.57;6.00;;;13.20;99.90;;;;;;4987291;28;20050;-69
2023/05/05 09:15:52;;;;;;;14.35;5.75;;;13.30;99.90;;;;;;4989156;28;20062;-70
2023/05/05 09:18:17;;;;;;;11.95;5.75;;;13.30;99.90;;;;;;4987677;28;20033;-69
2023/05/05 09:20:43;;;;;;;13.38;6.20;;;13.40;99.90;;;;;;4991039;28;20483;-68
2023/05/05 09:23:19;;;;;;;17.35;6.55;;;13.30;99.90;;;;;;4986648;28;20042;-70
2023/05/05 09:26:04;;;;;;;13.60;6.22;;;13.30;99.90;;;;;;4988838;28;20125;-69
2023/05/05 09:28:29;;;;;;;16.23;6.25;;;13.40;99.90;;;;;;4987991;28;20058;-70
2023/05/05 09:30:55;;;;;;;21.40;6.57;;;13.40;99.90;;;;;;4989887;28;20026;-69
2023/05/05 09:33:30;;;;;;;16.73;6.72;;;13.40;99.90;;;;;;4989577;28;20022;-69
2023/05/05 09:36:01;;;;;;;17.58;6.00;;;13.40;99.90;;;;;;4989162;28;20034;-68
2023/05/05 09:38:26;;;;;;;15.73;6.35;;;13.40;99.90;;;;;;4989203;28;20400;-70
2023/05/05 09:40:53;;;;;;;15.13;6.00;;;13.50;99.90;;;;;;4969778;28;20026;-69
2023/05/05 09:43:21;;;;;;;14.95;6.15;;;13.50;99.90;;;;;;4987173;28;20043;-70
2023/05/05 09:45:48;;;;;;;16.20;6.47;;;13.50;99.90;;;;;;4985264;28;20023;-69
2023/05/05 09:48:30;;;;;;;16.13;6.20;;;13.40;99.90;;;;;;4982422;28;20043;-69
2023/05/05 09:50:57;;;;;;;14.88;6.10;;;13.60;99.90;;;;;;4971091;28;20045;-68
2023/05/05 09:53:23;;;;;;;14.95;6.75;;;13.60;99.90;;;;;;4983896;28;20034;-69
2023/05/05 09:55:54;;;;;;;17.17;6.60;;;13.70;99.90;;;;;;4990423;28;20051;-71
2023/05/05 09:58:22;;;;;;;19.95;7.03;;;13.80;99.90;;;;;;4991314;28;20034;-69
2023/05/05 10:00:48;;;;;;;15.05;6.45;;;13.90;99.90;;;;;;4988822;28;20030;-69
2023/05/05 10:03:15;;;;;;;18.88;6.50;;;14.00;99.90;;;;;;4988551;28;20047;-69
2023/05/05 10:05:55;;;;;;;17.20;6.82;;;14.20;99.90;;;;;;4969900;28;20073;-69
2023/05/05 10:08:25;;;;;;;13.32;6.70;;;14.40;99.90;;;;;;4989170;28;20109;-69
2023/05/05 10:10:57;;;;;;;15.65;6.25;;;14.70;99.90;;;;;;4989263;28;20133;-70
2023/05/05 10:13:23;;;;;;;12.70;6.82;;;15.00;99.90;;;;;;4968464;28;20153;-70
2023/05/05 10:15:51;;;;;;;13.35;6.13;;;15.20;99.90;;;;;;4986718;28;20026;-68
2023/05/05 10:18:22;;;;;;;14.02;6.75;;;15.40;99.90;;;;;;4990482;28;20022;-69
2023/05/05 10:20:56;;;;;;;17.40;7.15;;;15.60;99.90;;;;;;4986852;28;20083;-69
2023/05/05 10:23:23;;;;;;;15.63;7.05;;;15.90;99.90;;;;;;4989976;28;20049;-68
2023/05/05 10:26:04;;;;;;;14.20;6.32;;;16.20;99.90;;;;;;4991262;28;20081;-69
2023/05/05 10:28:53;;;;;;;15.70;6.78;;;16.40;99.90;;;;;;4986505;28;20058;-69
2023/05/05 10:31:48;;;;;;;10.90;6.30;;;16.60;99.90;;;;;;4971877;28;20338;-68
2023/05/05 10:34:19;;;;;;;;;;;16.70;99.90;;;;;;4989152;28;20039;-68
2023/05/05 10:36:45;;;;;;;18.00;6.70;;;16.80;99.90;;;;;;4973384;28;20385;-69
2023/05/05 10:39:13;;;;;;;13.15;6.68;;;16.80;99.90;;;;;;4990700;28;20030;-67
2023/05/05 10:41:40;;;;;;;17.13;7.10;;;16.80;99.90;;;;;;4991616;28;20038;-68
2023/05/05 10:44:06;;;;;;;15.90;7.22;;;16.70;99.90;;;;;;4974880;28;20042;-70
2023/05/05 10:46:32;;;;;;;13.27;6.82;;;16.70;99.90;;;;;;4993416;28;20026;-68
2023/05/05 10:49:24;;;;;;;18.48;7.57;;;16.70;99.90;;;;;;4990864;28;20111;-69
2023/05/05 10:52:05;;;;;;;15.63;6.82;;;16.60;99.90;;;;;;4941681;28;20646;-69
2023/05/05 10:54:43;;;;;;;13.45;6.32;;;16.60;99.90;;;;;;4994076;28;20047;-67
2023/05/05 10:57:10;;;;;;;12.90;6.30;;;16.80;99.90;;;;;;4994333;28;20027;-69
2023/05/05 10:59:36;;;;;;;17.25;5.97;;;17.10;99.90;;;;;;4992214;28;20085;-71
2023/05/05 11:02:23;;;;;;;13.98;6.28;;;17.30;99.90;;;;;;4992001;28;20046;-69
2023/05/05 11:05:11;;;;;;;19.55;6.32;;;17.50;99.90;;;;;;4976053;28;20038;-71
2023/05/05 11:07:37;;;;;;;19.65;6.45;;;17.60;99.90;;;;;;4993166;28;20034;-71
2023/05/05 11:10:05;;;;;;;16.88;6.85;;;17.50;99.90;;;;;;4995123;28;20034;-73
2023/05/05 11:12:51;;;;;;;15.65;6.72;;;17.40;99.90;;;;;;4976165;28;20050;-71
2023/05/05 11:15:26;;;;;;;11.80;6.07;;;17.50;99.90;;;;;;4993575;28;20062;-70
2023/05/05 11:17:54;;;;;;;12.23;6.50;;;17.80;99.90;;;;;;4975780;28;20589;-69
2023/05/05 11:20:38;;;;;;;12.13;6.80;;;17.90;99.90;;;;;;4993357;28;20054;-67
2023/05/05 11:23:03;;;;;;;13.88;5.88;;;18.10;99.90;;;;;;4994047;28;20034;-67
2023/05/05 11:25:35;;;;;;;14.43;6.68;;;18.40;99.90;;;;;;4994279;28;20054;-69
2023/05/05 11:28:13;;;;;;;15.68;6.03;;;18.50;99.90;;;;;;4976074;28;20432;-69
2023/05/05 11:30:54;;;;;;;12.85;6.47;;;18.60;99.90;;;;;;4993920;28;20034;-68
2023/05/05 11:33:29;;;;;;;16.40;6.60;;;18.80;99.90;;;;;;4991829;28;20090;-70
2023/05/05 11:35:59;;;;;;;16.42;6.22;;;18.80;99.90;;;;;;4989921;28;20034;-67
2023/05/05 11:38:35;;;;;;;12.43;6.32;;;18.60;99.90;;;;;;4990518;28;20495;-69
2023/05/05 11:41:34;;;;;;;11.70;6.10;;;18.60;99.90;;;;;;4989409;28;20031;-68
2023/05/05 11:44:17;;;;;;;10.85;5.35;;;18.70;99.90;;;;;;4984109;28;20050;-68
2023/05/05 11:46:51;;;;;;;13.07;6.00;;;19.00;99.90;;;;;;4990384;28;20082;-68
2023/05/05 11:49:35;;;;;;;14.73;6.63;;;19.40;99.90;;;;;;4990074;28;20484;-70
2023/05/05 11:52:10;;;;;;;15.27;6.33;;;19.60;99.90;;;;;;4992871;28;20023;-70
2023/05/05 11:54:39;;;;;;;14.35;6.70;;;19.60;99.90;;;;;;4989332;28;20058;-70
2023/05/05 11:57:06;;;;;;;13.82;6.35;;;19.80;99.90;;;;;;4986473;28;20030;-70
2023/05/05 11:59:35;;;;;;;16.25;6.20;;;19.80;99.90;;;;;;4989820;28;20054;-71
2023/05/05 12:02:02;;;;;;;14.15;5.95;;;19.90;99.90;;;;;;4990836;28;20096;-70
2023/05/05 12:04:28;;;;;;;14.68;6.43;;;20.00;99.90;;;;;;4993583;28;20033;-69
2023/05/05 12:06:54;;;;;;;14.10;6.03;;;20.20;99.90;;;;;;4975644;28;20038;-70
2023/05/05 12:09:21;;;;;;;14.32;6.85;;;20.10;99.90;;;;;;4993081;28;20023;-68
2023/05/05 12:11:56;;;;;;;14.10;5.97;;;20.10;99.90;;;;;;4993142;28;20055;-68
2023/05/05 12:14:22;;;;;;;;;;;20.30;99.90;;;;;;4975747;28;20037;-71
2023/05/05 12:16:57;;;;;;;14.15;6.88;;;20.40;99.90;;;;;;4993254;28;19905;-68
2023/05/05 12:19:23;;;;;;;16.52;7.43;;;20.20;99.90;;;;;;4992602;28;20034;-71
2023/05/05 12:21:49;;;;;;;17.17;6.95;;;20.10;99.90;;;;;;4991599;28;20074;-71
2023/05/05 12:24:14;;;;;;;11.77;7.22;;;20.00;99.90;;;;;;4975635;28;20059;-70
2023/05/05 12:26:40;;;;;;;14.05;7.15;;;19.90;99.90;;;;;;4975350;28;20024;-72
2023/05/05 12:29:06;;;;;;;13.05;7.07;;;20.00;99.90;;;;;;4992256;28;20034;-69
2023/05/05 12:31:40;;;;;;;12.23;6.88;;;20.30;99.90;;;;;;4991923;28;20018;-74
2023/05/05 12:34:08;;;;;;;12.18;7.07;;;20.70;99.90;;;;;;4992368;28;20034;-69
2023/05/05 12:36:35;;;;;;;14.68;6.80;;;20.90;99.90;;;;;;4992661;28;20015;-69
2023/05/05 12:39:01;;;;;;;16.83;7.38;;;21.30;99.90;;;;;;4991964;28;20050;-73
2023/05/05 12:41:27;;;;;;;14.65;7.63;;;21.50;99.90;;;;;;4973550;28;20057;-71
2023/05/05 12:43:57;;;;;;;14.00;7.68;;;21.60;99.90;;;;;;4992944;28;20030;-69
2023/05/05 12:46:23;;;;;;;14.35;7.60;;;21.50;99.90;;;;;;4973630;28;20034;-71
2023/05/05 12:49:05;;;;;;;11.73;7.07;;;21.50;99.90;;;;;;4973567;28;20054;-71